Time;durP1;ratioP1;P1;durP2;ratioP2;P2;SDS_P1;SDS_P2;PMS_P1;PMS_P2;Temp;Humidity;BMP_temperature;BMP_pressure;BME280_temperature;BME280_humidity;BME280_pressure;Samples;Min_cycle;Max_cycle;Signal;HPM_P1;HPM_P2
2021/08/20 00:01:15;;;;;;;5.60;5.17;;;19.60;99.90;;;;;;5137726;27;20487;-78
2021/08/20 00:03:42;;;;;;;5.63;5.13;;;19.60;99.90;;;;;;5137726;27;20472;-78
2021/08/20 00:06:08;;;;;;;5.27;4.97;;;19.60;99.90;;;;;;5137378;27;20524;-78
2021/08/20 00:08:35;;;;;;;4.77;4.47;;;19.70;99.90;;;;;;5137620;27;20479;-78
2021/08/20 00:11:03;;;;;;;4.60;4.30;;;19.60;99.90;;;;;;5137340;27;20528;-78
2021/08/20 00:13:30;;;;;;;4.80;4.40;;;19.60;99.90;;;;;;5137640;27;20451;-78
2021/08/20 00:15:56;;;;;;;5.10;4.60;;;19.70;99.90;;;;;;5122899;27;20473;-78
2021/08/20 00:18:24;;;;;;;4.83;4.53;;;19.70;99.90;;;;;;5116979;28;20473;-78
2021/08/20 00:20:51;;;;;;;6.23;5.70;;;19.70;99.90;;;;;;5116625;28;21003;-78
2021/08/20 00:23:17;;;;;;;5.47;5.00;;;19.70;99.90;;;;;;5116685;28;21027;-78
2021/08/20 00:25:44;;;;;;;5.37;4.97;;;19.70;99.90;;;;;;5116481;28;20505;-78
2021/08/20 00:28:11;;;;;;;5.70;5.27;;;19.70;99.90;;;;;;5116949;28;20469;-78
2021/08/20 00:30:37;;;;;;;5.23;4.83;;;19.70;99.90;;;;;;5116691;28;20441;-78
2021/08/20 00:33:04;;;;;;;5.37;4.97;;;19.70;99.90;;;;;;5116658;28;20498;-78
2021/08/20 00:35:32;;;;;;;5.23;4.87;;;19.70;99.90;;;;;;5116450;28;20532;-78
2021/08/20 00:37:58;;;;;;;5.00;4.63;;;19.70;99.90;;;;;;5116383;28;20529;-78
2021/08/20 00:40:25;;;;;;;5.17;4.83;;;19.70;99.90;;;;;;5116522;28;20875;-78
2021/08/20 00:42:52;;;;;;;7.20;5.00;;;19.70;99.90;;;;;;5116488;28;20473;-78
2021/08/20 00:45:18;;;;;;;5.83;5.33;;;19.70;99.90;;;;;;5116367;28;20477;-78
2021/08/20 00:47:45;;;;;;;5.50;5.00;;;19.70;99.90;;;;;;5116204;28;20564;-78
2021/08/20 00:50:12;;;;;;;5.23;4.83;;;19.70;99.90;;;;;;5116193;28;20522;-78
2021/08/20 00:52:40;;;;;;;4.93;4.50;;;19.70;99.90;;;;;;5116045;28;20445;-78
2021/08/20 00:55:09;;;;;;;5.57;5.17;;;19.70;99.90;;;;;;5116228;28;20449;-78
2021/08/20 00:57:35;;;;;;;5.07;4.67;;;19.70;99.90;;;;;;5116125;28;20467;-78
2021/08/20 01:00:02;;;;;;;4.47;3.93;;;19.70;99.90;;;;;;5116327;28;20545;-78
2021/08/20 01:02:29;;;;;;;4.10;3.80;;;19.70;99.90;;;;;;5115987;28;20812;-78
2021/08/20 01:04:55;;;;;;;4.30;4.00;;;19.70;99.90;;;;;;5115940;28;20532;-78
2021/08/20 01:07:22;;;;;;;4.07;3.77;;;19.70;99.90;;;;;;5118450;27;20481;-78
2021/08/20 01:09:50;;;;;;;4.43;4.03;;;19.70;99.90;;;;;;5135385;27;20527;-78
2021/08/20 01:12:16;;;;;;;4.10;3.80;;;19.70;99.90;;;;;;5136423;27;20536;-78
2021/08/20 01:14:43;;;;;;;3.40;3.20;;;19.60;99.90;;;;;;5132060;27;20516;-78
2021/08/20 01:17:10;;;;;;;3.70;3.50;;;19.70;99.90;;;;;;5115764;28;20540;-78
2021/08/20 01:19:38;;;;;;;4.27;3.93;;;19.70;99.90;;;;;;5115589;28;20809;-78
2021/08/20 01:22:07;;;;;;;3.93;3.63;;;19.70;99.90;;;;;;5115779;28;20441;-78
2021/08/20 01:24:35;;;;;;;3.93;3.60;;;19.70;99.90;;;;;;5115530;28;20450;-78
2021/08/20 01:27:03;;;;;;;4.33;4.03;;;19.70;99.90;;;;;;5115548;28;20512;-78
2021/08/20 01:29:32;;;;;;;3.40;3.20;;;19.70;99.90;;;;;;5115463;28;20561;-78
2021/08/20 01:31:58;;;;;;;3.40;3.20;;;19.60;99.90;;;;;;5115391;28;20437;-78
2021/08/20 01:34:25;;;;;;;3.87;3.60;;;19.50;99.90;;;;;;5115107;28;20446;-78
2021/08/20 01:36:51;;;;;;;4.10;3.80;;;19.40;99.90;;;;;;5115552;28;20912;-78
2021/08/20 01:39:18;;;;;;;3.23;3.03;;;19.40;99.90;;;;;;5115318;28;20446;-78
2021/08/20 01:41:44;;;;;;;3.50;3.23;;;19.30;99.90;;;;;;5115320;28;20457;-78
2021/08/20 01:44:12;;;;;;;3.43;3.13;;;19.20;99.90;;;;;;5115161;28;20874;-78
2021/08/20 01:46:39;;;;;;;3.87;3.60;;;19.20;99.90;;;;;;5115081;28;20509;-78
2021/08/20 01:49:07;;;;;;;3.57;3.27;;;19.20;99.90;;;;;;5114999;28;20536;-78
2021/08/20 01:51:34;;;;;;;3.40;3.20;;;19.30;99.90;;;;;;5115179;28;20450;-78
2021/08/20 01:54:03;;;;;;;3.60;3.40;;;19.30;99.90;;;;;;5115045;28;20540;-78
2021/08/20 01:56:31;;;;;;;3.70;3.40;;;19.30;99.90;;;;;;5115027;28;20461;-78
2021/08/20 01:58:59;;;;;;;3.73;3.50;;;19.30;99.90;;;;;;5115010;28;20476;-78
2021/08/20 02:01:28;;;;;;;3.27;3.07;;;19.30;99.90;;;;;;5114725;28;20576;-78
2021/08/20 02:03:55;;;;;;;3.20;3.00;;;19.30;99.90;;;;;;5114794;28;20536;-78
2021/08/20 02:06:21;;;;;;;3.67;3.47;;;19.30;99.90;;;;;;5114668;28;20505;-78
2021/08/20 02:08:48;;;;;;;2.70;2.50;;;19.30;99.90;;;;;;5114683;28;20522;-78
2021/08/20 02:11:14;;;;;;;2.90;2.70;;;19.20;99.90;;;;;;5114721;28;20854;-78
2021/08/20 02:13:41;;;;;;;3.03;2.83;;;19.20;99.90;;;;;;5114483;28;20897;-78
2021/08/20 02:16:08;;;;;;;3.23;3.03;;;19.20;99.90;;;;;;5130613;27;20441;-78
2021/08/20 02:18:36;;;;;;;2.93;2.73;;;19.20;99.90;;;;;;5135180;27;20460;-77
2021/08/20 02:21:03;;;;;;;2.77;2.57;;;19.30;99.90;;;;;;5134963;27;21028;-78
2021/08/20 02:23:32;;;;;;;3.10;2.90;;;19.30;99.90;;;;;;5134904;27;20472;-78
2021/08/20 02:25:58;;;;;;;4.17;2.83;;;19.30;99.90;;;;;;5134831;27;20449;-78
2021/08/20 02:28:25;;;;;;;3.23;3.03;;;19.30;99.90;;;;;;5134701;27;20480;-78
2021/08/20 02:30:52;;;;;;;2.90;2.70;;;19.30;99.90;;;;;;5134942;27;20536;-78
2021/08/20 02:33:19;;;;;;;2.97;2.77;;;19.20;99.90;;;;;;5134827;27;20450;-78
2021/08/20 02:35:47;;;;;;;2.47;2.27;;;19.20;99.90;;;;;;5134854;27;20479;-78
2021/08/20 02:38:14;;;;;;;4.60;2.90;;;19.20;99.90;;;;;;5134572;27;20444;-78
2021/08/20 02:40:40;;;;;;;3.07;2.87;;;19.10;99.90;;;;;;5134690;27;20540;-78
2021/08/20 02:43:07;;;;;;;3.30;3.10;;;19.10;99.90;;;;;;5134500;27;20849;-78
2021/08/20 02:45:33;;;;;;;3.50;3.20;;;19.10;99.90;;;;;;5134615;27;20535;-78
2021/08/20 02:48:00;;;;;;;3.00;2.80;;;19.20;99.90;;;;;;5134544;27;20502;-78
2021/08/20 02:50:26;;;;;;;3.40;3.20;;;19.20;99.90;;;;;;5134461;27;20480;-78
2021/08/20 02:52:54;;;;;;;3.17;2.97;;;19.20;99.90;;;;;;5134489;27;20531;-78
2021/08/20 02:55:21;;;;;;;2.60;2.50;;;19.10;99.90;;;;;;5134249;27;20495;-78
2021/08/20 02:57:48;;;;;;;3.47;3.27;;;19.20;99.90;;;;;;5134535;27;20460;-78
2021/08/20 03:00:15;;;;;;;2.90;2.70;;;19.20;99.90;;;;;;5134592;27;20444;-78
2021/08/20 03:02:42;;;;;;;3.10;2.90;;;19.20;99.90;;;;;;5134639;27;20539;-78
2021/08/20 03:05:09;;;;;;;2.90;2.70;;;19.20;99.90;;;;;;5134595;27;20472;-78
2021/08/20 03:07:35;;;;;;;3.77;3.43;;;19.30;99.90;;;;;;5134163;27;20544;-78
2021/08/20 03:10:03;;;;;;;3.30;3.00;;;19.30;99.90;;;;;;5134354;27;20555;-78
2021/08/20 03:12:30;;;;;;;3.90;3.60;;;19.30;99.90;;;;;;5134540;27;20468;-78
2021/08/20 03:14:57;;;;;;;3.77;3.47;;;19.30;99.90;;;;;;5128139;27;20491;-78
2021/08/20 03:17:24;;;;;;;3.33;3.03;;;19.20;99.90;;;;;;5113692;28;20948;-78
2021/08/20 03:19:50;;;;;;;4.90;2.90;;;19.30;99.90;;;;;;5113670;28;20540;-78
2021/08/20 03:22:16;;;;;;;3.47;3.17;;;19.30;99.90;;;;;;5113602;28;20540;-78
2021/08/20 03:24:43;;;;;;;3.70;3.50;;;19.30;99.90;;;;;;5113361;28;20529;-78
2021/08/20 03:27:11;;;;;;;4.07;2.80;;;19.30;99.90;;;;;;5113422;28;20576;-78
2021/08/20 03:29:37;;;;;;;3.43;3.23;;;19.30;99.90;;;;;;5113430;28;20544;-78
2021/08/20 03:32:05;;;;;;;3.83;3.43;;;19.20;99.90;;;;;;5112750;28;20540;-78
2021/08/20 03:34:32;;;;;;;2.77;2.57;;;19.20;99.90;;;;;;5113386;28;20489;-78
2021/08/20 03:36:58;;;;;;;4.90;3.17;;;19.20;99.90;;;;;;5113370;28;20540;-78
2021/08/20 03:39:25;;;;;;;3.90;3.60;;;19.20;99.90;;;;;;5113276;28;20445;-78
2021/08/20 03:41:51;;;;;;;5.90;3.70;;;19.20;99.90;;;;;;5113665;28;20449;-78
2021/08/20 03:44:19;;;;;;;4.13;3.87;;;19.20;99.90;;;;;;5113679;28;20846;-78
2021/08/20 03:46:46;;;;;;;4.60;4.00;;;19.20;99.90;;;;;;5113436;28;20556;-78
2021/08/20 03:49:12;;;;;;;6.57;4.40;;;19.20;99.90;;;;;;5113219;28;20485;-78
2021/08/20 03:51:39;;;;;;;4.50;4.10;;;19.20;99.90;;;;;;5113261;28;20540;-78
2021/08/20 03:54:05;;;;;;;4.70;4.07;;;19.20;99.90;;;;;;5113078;28;20477;-78
2021/08/20 03:56:32;;;;;;;4.10;3.80;;;19.20;99.90;;;;;;5113356;28;20484;-78
2021/08/20 03:58:59;;;;;;;4.03;3.73;;;19.20;99.90;;;;;;5113038;28;20449;-78
2021/08/20 04:01:27;;;;;;;4.10;3.80;;;19.20;99.90;;;;;;5113066;28;20453;-78
2021/08/20 04:03:53;;;;;;;4.27;3.97;;;19.20;99.90;;;;;;5113022;28;20484;-78
2021/08/20 04:06:20;;;;;;;5.20;4.70;;;19.20;99.90;;;;;;5112739;28;20477;-78
2021/08/20 04:08:46;;;;;;;5.53;4.97;;;19.20;99.90;;;;;;5112790;28;20572;-78
2021/08/20 04:11:13;;;;;;;4.70;4.20;;;19.20;99.90;;;;;;5113092;28;20477;-78
2021/08/20 04:13:41;;;;;;;4.07;3.67;;;19.20;99.90;;;;;;5113055;28;20511;-78
2021/08/20 04:16:07;;;;;;;4.90;4.53;;;19.20;99.90;;;;;;5128930;28;20513;-78
2021/08/20 04:18:39;;;;;;;3.83;3.53;;;19.20;99.90;;;;;;5133448;28;20543;-78
2021/08/20 04:21:06;;;;;;;4.20;3.90;;;19.20;99.90;;;;;;5133354;28;20449;-78
2021/08/20 04:23:32;;;;;;;4.27;3.87;;;19.20;99.90;;;;;;5133402;28;20484;-78
2021/08/20 04:25:59;;;;;;;4.30;3.90;;;19.20;99.90;;;;;;5133494;28;20540;-78
2021/08/20 04:28:25;;;;;;;4.60;4.27;;;19.20;99.90;;;;;;5133258;28;20572;-78
2021/08/20 04:30:52;;;;;;;4.17;3.77;;;19.20;99.90;;;;;;5133255;28;20444;-78
2021/08/20 04:33:18;;;;;;;4.60;4.20;;;19.30;99.90;;;;;;5133300;28;20544;-78
2021/08/20 04:35:48;;;;;;;4.67;4.27;;;19.20;99.90;;;;;;5133252;28;20528;-78
2021/08/20 04:38:15;;;;;;;6.00;4.80;;;19.20;99.90;;;;;;5133706;28;20974;-78
2021/08/20 04:40:41;;;;;;;4.73;4.33;;;19.20;99.90;;;;;;5133319;28;20544;-78
2021/08/20 04:43:08;;;;;;;4.70;4.30;;;19.20;99.90;;;;;;5133298;27;20476;-78
2021/08/20 04:45:34;;;;;;;6.30;5.10;;;19.20;99.90;;;;;;5135989;27;20452;-78
2021/08/20 04:48:01;;;;;;;4.33;3.93;;;19.20;99.90;;;;;;5136720;27;20572;-78
2021/08/20 04:50:29;;;;;;;4.40;4.00;;;19.20;99.90;;;;;;5136945;27;20479;-78
2021/08/20 04:52:58;;;;;;;5.20;4.63;;;19.30;99.90;;;;;;5136871;27;20869;-78
2021/08/20 04:55:25;;;;;;;4.73;4.33;;;19.20;99.90;;;;;;5136848;27;20885;-78
2021/08/20 04:57:51;;;;;;;5.20;4.70;;;19.30;99.90;;;;;;5136716;27;20440;-78
2021/08/20 05:00:18;;;;;;;5.90;5.30;;;19.30;99.90;;;;;;5136421;27;20544;-78
2021/08/20 05:02:45;;;;;;;5.27;4.87;;;19.30;99.90;;;;;;5136508;27;20536;-78
2021/08/20 05:05:12;;;;;;;6.07;5.20;;;19.30;99.90;;;;;;5136594;27;20484;-78
2021/08/20 05:07:39;;;;;;;6.77;6.20;;;19.30;99.90;;;;;;5136292;27;20579;-78
2021/08/20 05:10:10;;;;;;;6.07;5.43;;;19.30;99.90;;;;;;5136380;27;20540;-78
2021/08/20 05:12:36;;;;;;;5.93;5.43;;;19.30;99.90;;;;;;5136488;27;20452;-78
2021/08/20 05:15:03;;;;;;;6.20;5.70;;;19.30;99.90;;;;;;5129191;27;20482;-78
2021/08/20 05:17:30;;;;;;;6.87;6.27;;;19.30;99.90;;;;;;5115692;28;20940;-78
2021/08/20 05:19:57;;;;;;;7.67;5.60;;;19.20;99.90;;;;;;5115780;28;20831;-78
2021/08/20 05:22:23;;;;;;;6.17;5.60;;;19.10;99.90;;;;;;5115543;28;20956;-78
2021/08/20 05:24:50;;;;;;;6.40;5.80;;;19.10;99.90;;;;;;5115523;28;20916;-78
2021/08/20 05:27:18;;;;;;;7.63;7.03;;;19.10;99.90;;;;;;5115471;28;20470;-78
2021/08/20 05:29:44;;;;;;;7.27;6.67;;;19.00;99.90;;;;;;5115417;28;20490;-78
2021/08/20 05:32:11;;;;;;;8.83;7.50;;;19.00;99.90;;;;;;5115618;28;20543;-78
2021/08/20 05:34:38;;;;;;;9.63;7.57;;;19.00;99.90;;;;;;5115468;28;20478;-78
2021/08/20 05:37:04;;;;;;;7.90;6.10;;;19.00;99.90;;;;;;5115391;28;20469;-78
2021/08/20 05:39:31;;;;;;;7.60;6.80;;;19.00;99.90;;;;;;5115475;28;20536;-78
2021/08/20 05:41:57;;;;;;;9.07;6.20;;;19.00;99.90;;;;;;5115303;28;20883;-78
2021/08/20 05:44:25;;;;;;;8.07;7.27;;;19.00;99.90;;;;;;5115263;28;20477;-78
2021/08/20 05:46:52;;;;;;;9.70;7.47;;;19.00;99.90;;;;;;5115314;28;20532;-78
2021/08/20 05:49:18;;;;;;;7.33;6.63;;;19.10;99.90;;;;;;5115028;28;20513;-78
2021/08/20 05:51:45;;;;;;;7.37;6.40;;;19.10;99.90;;;;;;5115091;28;20528;-78
2021/08/20 05:54:11;;;;;;;7.23;6.30;;;19.20;99.90;;;;;;5115161;28;20891;-78
2021/08/20 05:56:38;;;;;;;9.13;6.40;;;19.20;99.90;;;;;;5114378;28;20486;-78
2021/08/20 05:59:04;;;;;;;8.47;7.77;;;19.30;99.90;;;;;;5114810;28;20500;-78
2021/08/20 06:01:32;;;;;;;7.87;7.17;;;19.40;99.90;;;;;;5114961;28;20541;-78
2021/08/20 06:03:59;;;;;;;7.83;7.07;;;19.60;99.90;;;;;;5114743;28;20892;-78
2021/08/20 06:06:26;;;;;;;8.17;7.37;;;19.70;99.90;;;;;;5114592;28;20534;-78
2021/08/20 06:08:54;;;;;;;11.17;9.37;;;19.90;99.90;;;;;;5114812;28;20511;-78
2021/08/20 06:11:20;;;;;;;8.50;7.70;;;20.00;99.90;;;;;;5114587;28;20488;-78
2021/08/20 06:13:49;;;;;;;9.67;8.83;;;20.10;99.90;;;;;;5114856;28;20493;-78
2021/08/20 06:16:16;;;;;;;9.37;8.47;;;20.20;99.90;;;;;;5131888;27;20445;-78
2021/08/20 06:18:43;;;;;;;11.07;9.80;;;20.40;99.90;;;;;;5135089;27;21031;-78
2021/08/20 06:21:10;;;;;;;9.10;8.30;;;20.50;99.90;;;;;;5135029;27;20448;-78
2021/08/20 06:23:36;;;;;;;10.40;9.40;;;20.60;99.90;;;;;;5135014;27;20533;-78
2021/08/20 06:26:03;;;;;;;9.37;8.40;;;20.80;99.90;;;;;;5134813;27;20623;-78
2021/08/20 06:28:30;;;;;;;9.90;9.07;;;20.90;99.90;;;;;;5134979;27;20512;-78
2021/08/20 06:31:02;;;;;;;10.90;9.80;;;21.10;99.90;;;;;;5134801;27;20452;-78
2021/08/20 06:33:28;;;;;;;9.93;9.10;;;21.20;99.90;;;;;;5135093;27;20808;-79
2021/08/20 06:35:56;;;;;;;10.90;9.90;;;21.40;99.90;;;;;;5134657;27;20481;-79
2021/08/20 06:38:23;;;;;;;12.27;10.73;;;21.60;99.90;;;;;;5134750;27;21006;-79
2021/08/20 06:40:50;;;;;;;12.43;11.27;;;21.70;99.90;;;;;;5134536;27;20488;-79
2021/08/20 06:43:16;;;;;;;12.23;11.20;;;21.80;99.90;;;;;;5134755;27;20484;-79
2021/08/20 06:45:43;;;;;;;12.20;11.10;;;22.00;99.90;;;;;;5134696;27;20552;-80
2021/08/20 06:48:09;;;;;;;13.07;11.77;;;22.20;99.90;;;;;;5134397;27;20560;-80
2021/08/20 06:50:36;;;;;;;12.37;11.07;;;22.20;99.90;;;;;;5134546;27;20472;-80
2021/08/20 06:53:04;;;;;;;13.37;11.43;;;22.30;99.90;;;;;;5134252;27;20491;-80
2021/08/20 06:55:33;;;;;;;13.63;11.60;;;22.50;99.90;;;;;;5134605;27;20540;-80
2021/08/20 06:57:59;;;;;;;12.70;11.53;;;22.60;99.90;;;;;;5134497;27;20452;-80
2021/08/20 07:00:26;;;;;;;13.30;12.10;;;22.70;99.90;;;;;;5134424;27;20476;-80
2021/08/20 07:02:52;;;;;;;11.90;10.70;;;22.80;99.90;;;;;;5134253;27;20535;-80
2021/08/20 07:05:19;;;;;;;11.97;10.97;;;22.90;99.90;;;;;;5134248;27;20480;-80
2021/08/20 07:07:47;;;;;;;13.37;11.97;;;23.00;99.90;;;;;;5133205;27;20519;-80
2021/08/20 07:10:15;;;;;;;14.83;12.40;;;23.10;99.90;;;;;;5134379;27;20480;-80
2021/08/20 07:12:42;;;;;;;13.80;12.40;;;23.10;99.90;;;;;;5134296;27;20539;-80
2021/08/20 07:15:11;;;;;;;14.43;13.10;;;23.10;99.90;;;;;;5126368;27;20502;-80
2021/08/20 07:17:38;;;;;;;15.33;13.23;;;23.00;99.90;;;;;;5113603;28;20469;-80
2021/08/20 07:20:05;;;;;;;15.40;14.10;;;22.80;99.90;;;;;;5113484;28;20473;-80
2021/08/20 07:22:32;;;;;;;16.10;14.40;;;22.80;99.90;;;;;;5113589;28;20480;-80
2021/08/20 07:24:59;;;;;;;15.17;13.73;;;22.60;99.90;;;;;;5113671;28;20494;-80
2021/08/20 07:27:27;;;;;;;15.60;14.10;;;22.60;99.90;;;;;;5113574;28;20532;-80
2021/08/20 07:29:53;;;;;;;14.93;13.43;;;22.50;99.90;;;;;;5113220;28;20476;-80
2021/08/20 07:32:20;;;;;;;15.00;13.30;;;22.40;99.90;;;;;;5113334;28;20482;-80
2021/08/20 07:34:47;;;;;;;14.37;13.00;;;22.40;99.90;;;;;;5113310;28;20463;-80
2021/08/20 07:37:13;;;;;;;16.07;14.23;;;22.50;99.90;;;;;;5113553;28;20471;-80
2021/08/20 07:39:41;;;;;;;14.47;13.27;;;22.60;99.90;;;;;;5113747;28;20808;-80
2021/08/20 07:42:07;;;;;;;13.40;12.30;;;22.60;99.90;;;;;;5113290;28;20536;-80
2021/08/20 07:44:35;;;;;;;13.40;12.10;;;22.50;99.90;;;;;;5113367;28;20481;-80
2021/08/20 07:47:02;;;;;;;13.03;11.97;;;22.50;99.90;;;;;;5113203;28;20473;-79
2021/08/20 07:49:29;;;;;;;14.53;12.77;;;22.50;99.90;;;;;;5113144;28;20513;-80
2021/08/20 07:51:56;;;;;;;12.20;11.10;;;22.50;99.90;;;;;;5113405;28;20518;-80
2021/08/20 07:54:23;;;;;;;14.70;12.30;;;22.30;99.90;;;;;;5113333;28;20544;-80
2021/08/20 07:56:49;;;;;;;11.77;10.67;;;22.30;99.90;;;;;;5113345;28;20533;-80
2021/08/20 07:59:16;;;;;;;12.50;11.40;;;22.30;99.90;;;;;;5113194;28;20452;-80
2021/08/20 08:01:44;;;;;;;12.30;11.10;;;22.20;99.90;;;;;;5113080;28;20540;-80
2021/08/20 08:04:10;;;;;;;13.07;11.90;;;22.20;99.90;;;;;;5112940;28;20446;-80
2021/08/20 08:06:38;;;;;;;12.13;11.17;;;22.10;99.90;;;;;;5112892;28;20556;-80
2021/08/20 08:09:05;;;;;;;11.07;10.17;;;22.10;99.90;;;;;;5113134;28;21002;-80
2021/08/20 08:11:31;;;;;;;12.30;11.20;;;22.10;99.90;;;;;;5113011;28;21009;-80
2021/08/20 08:14:03;;;;;;;10.33;9.57;;;22.20;99.90;;;;;;5113104;28;20528;-80
2021/08/20 08:16:30;;;;;;;11.40;10.50;;;22.20;99.90;;;;;;5132136;28;20531;-80
2021/08/20 08:18:58;;;;;;;11.10;10.00;;;22.00;99.90;;;;;;5135885;27;20448;-80
2021/08/20 08:21:24;;;;;;;8.70;7.90;;;21.70;99.90;;;;;;5137721;27;20483;-80
2021/08/20 08:23:51;;;;;;;6.90;6.30;;;21.50;99.90;;;;;;5137330;27;20535;-80
2021/08/20 08:26:17;;;;;;;9.73;7.20;;;21.20;99.90;;;;;;5137414;27;20539;-80
2021/08/20 08:28:45;;;;;;;9.47;6.80;;;21.00;99.90;;;;;;5137041;27;20555;-80
2021/08/20 08:31:12;;;;;;;7.40;6.20;;;20.90;99.90;;;;;;5137243;27;20487;-80
2021/08/20 08:33:38;;;;;;;8.60;7.63;;;21.00;99.90;;;;;;5137180;27;20535;-80
2021/08/20 08:36:06;;;;;;;6.93;5.77;;;21.10;99.90;;;;;;5137439;27;20536;-80
2021/08/20 08:38:32;;;;;;;6.60;6.10;;;21.20;99.90;;;;;;5137174;27;20513;-80
2021/08/20 08:40:59;;;;;;;7.23;6.53;;;21.20;99.90;;;;;;5137054;27;20539;-80
2021/08/20 08:43:25;;;;;;;6.20;5.70;;;21.20;99.90;;;;;;5136891;27;20528;-80
2021/08/20 08:45:52;;;;;;;6.73;6.13;;;21.20;99.90;;;;;;5137282;27;20532;-80
2021/08/20 08:48:20;;;;;;;7.70;6.93;;;21.10;99.90;;;;;;5137077;27;20503;-80
2021/08/20 08:50:48;;;;;;;7.43;6.73;;;21.00;99.90;;;;;;5137057;27;20539;-80
2021/08/20 08:53:16;;;;;;;8.30;7.50;;;20.90;99.90;;;;;;5137021;27;20443;-80
2021/08/20 08:55:47;;;;;;;8.00;7.30;;;20.80;99.90;;;;;;5136929;27;20441;-80
2021/08/20 08:58:13;;;;;;;8.90;8.10;;;20.60;99.90;;;;;;5137032;27;20951;-80
2021/08/20 09:00:40;;;;;;;8.93;8.03;;;20.50;99.90;;;;;;5137048;27;20531;-80
2021/08/20 09:03:06;;;;;;;11.17;9.80;;;20.50;99.90;;;;;;5136857;27;20479;-80
2021/08/20 09:05:43;;;;;;;10.13;9.20;;;20.40;99.90;;;;;;5136777;27;20535;-80
2021/08/20 09:08:15;;;;;;;10.87;9.83;;;20.30;99.90;;;;;;5136142;27;20471;-80
2021/08/20 09:10:50;;;;;;;12.27;10.87;;;20.20;99.90;;;;;;5136818;27;20540;-80
2021/08/20 09:13:17;;;;;;;11.63;10.27;;;20.20;99.90;;;;;;5136488;27;20535;-80
2021/08/20 09:15:45;;;;;;;12.43;10.40;;;20.30;99.90;;;;;;5123596;27;20951;-80
2021/08/20 09:18:21;;;;;;;11.20;10.20;;;20.40;99.90;;;;;;5115846;28;20875;-79
2021/08/20 09:20:48;;;;;;;11.17;10.07;;;20.70;99.90;;;;;;5115795;28;20442;-80
2021/08/20 09:23:20;;;;;;;11.40;10.20;;;20.90;99.90;;;;;;5115655;28;21012;-79
2021/08/20 09:25:47;;;;;;;12.30;11.20;;;21.10;99.90;;;;;;5115767;28;20975;-80
2021/08/20 09:28:26;;;;;;;13.70;10.90;;;21.20;99.90;;;;;;5115742;28;20453;-80
2021/08/20 09:31:07;;;;;;;12.80;11.50;;;21.40;99.90;;;;;;5114864;28;20484;-80
2021/08/20 09:33:36;;;;;;;11.70;10.50;;;21.60;99.90;;;;;;5115590;28;20524;-80
2021/08/20 09:36:05;;;;;;;15.17;12.83;;;21.70;99.90;;;;;;5115835;28;20445;-80
2021/08/20 09:38:33;;;;;;;12.83;11.67;;;21.80;99.90;;;;;;5115651;28;20442;-80
2021/08/20 09:41:06;;;;;;;12.30;11.20;;;21.90;99.90;;;;;;5115778;28;20874;-80
2021/08/20 09:43:35;;;;;;;12.87;11.63;;;21.90;99.90;;;;;;5115533;28;20445;-80
2021/08/20 09:46:06;;;;;;;11.20;9.97;;;21.90;99.90;;;;;;5115404;28;20495;-80
2021/08/20 09:48:44;;;;;;;12.30;11.20;;;21.90;99.90;;;;;;5115624;28;20495;-80
2021/08/20 09:51:32;;;;;;;10.50;9.50;;;22.00;99.90;;;;;;5115539;28;20445;-80
2021/08/20 09:53:59;;;;;;;12.23;10.80;;;22.30;99.90;;;;;;5115243;28;20449;-80
2021/08/20 09:56:27;;;;;;;12.00;10.87;;;22.60;99.90;;;;;;5115086;28;20482;-80
2021/08/20 09:58:58;;;;;;;12.53;11.23;;;23.00;99.90;;;;;;5115075;28;20499;-80
2021/08/20 10:01:25;;;;;;;11.90;10.70;;;23.20;99.90;;;;;;5115218;28;20481;-80
2021/08/20 10:03:52;;;;;;;11.43;9.90;;;23.20;99.90;;;;;;5115178;28;20473;-80
2021/08/20 10:06:19;;;;;;;12.03;10.60;;;23.30;99.90;;;;;;5114818;28;20892;-80
2021/08/20 10:08:46;;;;;;;11.30;10.30;;;23.50;99.90;;;;;;5114832;28;20505;-80
2021/08/20 10:11:16;;;;;;;11.10;10.00;;;23.80;99.90;;;;;;5114926;28;20484;-80
2021/08/20 10:13:45;;;;;;;9.30;8.50;;;24.10;99.90;;;;;;5115033;28;20895;-80
2021/08/20 10:16:14;;;;;;;9.23;8.40;;;24.30;99.90;;;;;;5131763;27;20440;-80
2021/08/20 10:18:41;;;;;;;8.60;7.80;;;24.40;99.90;;;;;;5135243;27;20515;-80
2021/08/20 10:21:09;;;;;;;7.83;7.23;;;24.50;99.90;;;;;;5135177;27;20531;-80
2021/08/20 10:23:36;;;;;;;7.90;7.23;;;24.70;99.90;;;;;;5134961;27;20502;-80
2021/08/20 10:26:06;;;;;;;9.53;8.73;;;24.80;99.90;;;;;;5135266;27;20531;-80
2021/08/20 10:28:34;;;;;;;7.30;6.60;;;24.90;99.90;;;;;;5134900;27;20927;-80
2021/08/20 10:31:01;;;;;;;7.90;7.37;;;25.00;99.90;;;;;;5134993;27;20815;-80
2021/08/20 10:33:33;;;;;;;9.80;8.90;;;25.10;99.90;;;;;;5135021;27;20469;-78
2021/08/20 10:36:01;;;;;;;7.53;6.83;;;25.20;99.90;;;;;;5134850;27;20476;-78
2021/08/20 10:38:30;;;;;;;7.20;6.47;;;25.10;99.90;;;;;;5134681;27;20457;-78
2021/08/20 10:41:15;;;;;;;7.90;7.10;;;25.10;99.90;;;;;;5134778;27;20535;-78
2021/08/20 10:44:03;;;;;;;9.77;6.60;;;25.20;99.90;;;;;;5134928;27;20472;-78
2021/08/20 10:47:00;;;;;;;6.40;5.90;;;25.10;99.90;;;;;;5128463;27;20445;-78
2021/08/20 10:49:35;;;;;;;6.53;5.50;;;24.80;99.90;;;;;;5134713;27;20555;-78
2021/08/20 10:52:03;;;;;;;5.30;4.90;;;24.70;99.90;;;;;;5134784;27;20531;-78
2021/08/20 10:55:06;;;;;;;5.63;5.13;;;24.40;99.90;;;;;;5134391;27;20540;-77
2021/08/20 10:58:07;;;;;;;6.63;6.03;;;24.00;99.90;;;;;;5134657;27;20813;-78
2021/08/20 11:00:36;;;;;;;4.77;4.47;;;23.80;99.90;;;;;;5134322;27;20448;-78
2021/08/20 11:03:04;;;;;;;5.00;4.60;;;23.70;99.90;;;;;;5134271;27;20449;-78
2021/08/20 11:05:49;;;;;;;5.80;4.37;;;23.70;99.90;;;;;;5134351;27;20448;-77
2021/08/20 11:08:43;;;;;;;3.70;3.40;;;23.90;99.90;;;;;;5134436;27;20527;-78
2021/08/20 11:11:47;;;;;;;4.87;4.57;;;24.30;99.90;;;;;;5134139;27;20452;-78
2021/08/20 11:14:34;;;;;;;5.40;4.80;;;24.70;99.90;;;;;;5134036;27;20515;-78
2021/08/20 11:17:01;;;;;;;3.97;3.63;;;25.00;99.90;;;;;;5113694;28;20871;-78
2021/08/20 11:20:04;;;;;;;5.90;4.80;;;25.10;99.90;;;;;;5113583;28;20793;-78
2021/08/20 11:22:32;;;;;;;4.23;3.77;;;25.20;99.90;;;;;;5113969;28;20507;-79
2021/08/20 11:25:15;;;;;;;3.57;3.37;;;25.10;99.90;;;;;;5113525;28;20475;-79
2021/08/20 11:27:58;;;;;;;4.37;3.97;;;24.80;99.90;;;;;;5113578;28;20441;-79
2021/08/20 11:30:25;;;;;;;4.57;4.20;;;24.50;99.90;;;;;;5113662;28;20481;-79
2021/08/20 11:33:07;;;;;;;4.47;4.00;;;24.30;99.90;;;;;;5113483;28;20450;-79
2021/08/20 11:35:33;;;;;;;3.87;3.63;;;24.10;99.90;;;;;;5113851;28;20540;-79
2021/08/20 11:38:01;;;;;;;5.27;4.03;;;24.20;99.90;;;;;;5113436;28;20868;-79
2021/08/20 11:40:28;;;;;;;4.33;3.93;;;24.40;99.90;;;;;;5114056;28;20442;-79
2021/08/20 11:43:09;;;;;;;4.27;3.97;;;24.50;99.90;;;;;;5113596;28;20484;-79
2021/08/20 11:45:37;;;;;;;6.20;4.90;;;24.60;99.90;;;;;;5113598;28;20446;-79
2021/08/20 11:48:04;;;;;;;4.80;4.50;;;24.70;99.90;;;;;;5113467;28;20541;-79
2021/08/20 11:50:33;;;;;;;5.33;4.17;;;24.70;99.90;;;;;;5113695;28;20508;-78
2021/08/20 11:53:01;;;;;;;4.17;3.87;;;24.80;99.90;;;;;;5113815;28;20477;-79
2021/08/20 11:55:28;;;;;;;5.30;4.80;;;25.00;99.90;;;;;;5117477;28;20548;-79
2021/08/20 11:57:54;;;;;;;4.53;4.23;;;25.20;99.90;;;;;;5117773;28;20804;-79
2021/08/20 12:00:21;;;;;;;5.60;4.20;;;25.40;99.90;;;;;;5117710;28;20540;-78
2021/08/20 12:02:48;;;;;;;4.67;4.13;;;25.60;99.90;;;;;;5117836;28;20477;-79
2021/08/20 12:05:19;;;;;;;5.20;4.70;;;25.90;99.90;;;;;;5117140;28;20481;-79
2021/08/20 12:07:46;;;;;;;5.67;5.17;;;25.90;99.90;;;;;;5116902;28;20565;-79
2021/08/20 12:10:16;;;;;;;6.03;4.77;;;25.90;99.90;;;;;;5117047;28;20538;-79
2021/08/20 12:12:44;;;;;;;4.10;3.77;;;25.70;99.90;;;;;;5117307;28;20824;-79
2021/08/20 12:15:12;;;;;;;4.43;3.90;;;25.50;99.90;;;;;;5125202;27;20479;-79
2021/08/20 12:17:39;;;;;;;4.53;4.23;;;25.20;99.90;;;;;;5137583;27;20536;-79
2021/08/20 12:20:21;;;;;;;4.57;4.17;;;24.90;99.90;;;;;;5137413;27;20456;-79
2021/08/20 12:22:50;;;;;;;4.47;4.07;;;24.70;99.90;;;;;;5137904;27;20504;-79
2021/08/20 12:25:20;;;;;;;4.63;4.00;;;24.50;99.90;;;;;;5137635;27;20471;-79
2021/08/20 12:27:48;;;;;;;4.23;3.93;;;24.20;99.90;;;;;;5137787;27;20540;-78
2021/08/20 12:30:16;;;;;;;4.93;4.63;;;24.00;99.90;;;;;;5137347;27;20839;-78
2021/08/20 12:32:44;;;;;;;6.33;4.20;;;23.70;99.90;;;;;;5137772;27;20445;-78
2021/08/20 12:35:17;;;;;;;4.50;4.10;;;23.60;99.90;;;;;;5137574;27;20535;-78
2021/08/20 12:37:59;;;;;;;4.70;4.40;;;23.40;99.90;;;;;;5137253;27;21009;-78
2021/08/20 12:40:33;;;;;;;7.00;6.50;;;23.20;99.90;;;;;;5137262;27;20872;-79
2021/08/20 12:43:00;;;;;;;4.80;4.40;;;23.20;99.90;;;;;;5137288;27;20476;-78
2021/08/20 12:45:27;;;;;;;6.60;5.30;;;23.20;99.90;;;;;;5137293;27;20535;-79
2021/08/20 12:48:03;;;;;;;5.20;4.70;;;23.10;99.90;;;;;;5137403;27;20479;-78
2021/08/20 12:50:30;;;;;;;5.40;4.97;;;23.10;99.90;;;;;;5137209;27;20532;-79